Time;durP1;ratioP1;P1;durP2;ratioP2;P2;SDS_P1;SDS_P2;PMS_P1;PMS_P2;Temp;Humidity;BMP_temperature;BMP_pressure;BME280_temperature;BME280_humidity;BME280_pressure;Samples;Min_cycle;Max_cycle;Signal;HPM_P1;HPM_P2
2024/01/16 00:02:13;;;;;;;;;;;;;;;-2.15;75.40;99919.03;4986691;28;19952;-83
2024/01/16 00:04:40;;;;;;;;;;;;;;;-2.28;75.93;99927.25;4985618;28;19934;-83
2024/01/16 00:07:07;;;;;;;;;;;;;;;-2.17;75.59;99923.28;4985991;28;20378;-82
2024/01/16 00:09:34;;;;;;;;;;;;;;;-2.16;75.64;99927.59;4972647;28;19957;-82
2024/01/16 00:12:04;;;;;;;;;;;;;;;-2.12;75.42;99929.41;4985512;28;19925;-81
2024/01/16 00:14:30;;;;;;;;;;;;;;;-2.13;75.34;99935.41;4985084;28;19926;-85
2024/01/16 00:16:57;;;;;;;;;;;;;;;-2.15;75.37;99942.19;4971456;28;19933;-81
2024/01/16 00:19:24;;;;;;;;;;;;;;;-2.20;75.63;99936.06;4985568;28;19934;-81
2024/01/16 00:21:51;;;;;;;;;;;;;;;-2.25;75.78;99947.03;4981451;28;19969;-82
2024/01/16 00:24:18;;;;;;;;;;;;;;;-2.32;76.13;99943.41;4987312;28;19932;-86
2024/01/16 00:26:44;;;;;;;;;;;;;;;-2.07;75.47;99952.72;4987298;28;19937;-82
2024/01/16 00:29:12;;;;;;;;;;;;;;;-2.25;75.75;99947.91;4986719;28;19936;-83
2024/01/16 00:31:39;;;;;;;;;;;;;;;-2.37;76.36;99950.13;4985078;28;19965;-84
2024/01/16 00:34:06;;;;;;;;;;;;;;;-2.44;76.33;99949.06;4969627;28;19926;-83
2024/01/16 00:36:32;;;;;;;;;;;;;;;-2.50;76.81;99947.19;4987240;28;19926;-82
2024/01/16 00:38:59;;;;;;;;;;;;;;;-2.37;76.89;99952.69;4984396;28;19932;-81
2024/01/16 00:41:26;;;;;;;;;;;;;;;-2.41;76.45;99953.44;4985440;28;19973;-82
2024/01/16 00:43:53;;;;;;;;;;;;;;;-2.58;77.02;99950.34;4985829;28;19937;-85
2024/01/16 00:46:20;;;;;;;;;;;;;;;-2.58;77.28;99953.78;4985083;28;19933;-84
2024/01/16 00:48:47;;;;;;;;;;;;;;;-2.65;77.38;99949.28;4972119;28;19925;-82
2024/01/16 00:51:15;;;;;;;;;;;;;;;-2.62;77.44;99957.97;4986235;28;19930;-82
2024/01/16 00:53:41;;;;;;;;;;;;;;;-2.57;77.54;99962.38;4983301;28;19926;-81
2024/01/16 00:56:08;;;;;;;;;;;;;;;-2.46;77.12;99959.28;4987118;28;19965;-82
2024/01/16 00:58:35;;;;;;;;;;;;;;;-2.52;77.52;99959.13;4968531;28;19933;-82
2024/01/16 01:01:02;;;;;;;;;;;;;;;-2.46;77.44;99959.28;4981477;28;19927;-85
2024/01/16 01:03:28;;;;;;;;;;;;;;;-2.37;77.33;99962.97;4986120;28;19933;-82
2024/01/16 01:05:55;;;;;;;;;;;;;;;-2.34;76.89;99957.91;4982768;28;19957;-84
2024/01/16 01:08:22;;;;;;;;;;;;;;;-2.32;76.78;99961.41;4951063;28;19926;-81
2024/01/16 01:10:49;;;;;;;;;;;;;;;-2.42;77.08;99965.38;4984777;28;19930;-84
2024/01/16 01:13:15;;;;;;;;;;;;;;;-2.38;77.14;99971.50;4984813;28;19926;-82
2024/01/16 01:15:42;;;;;;;;;;;;;;;-2.49;77.16;99964.34;4985362;28;19933;-85
2024/01/16 01:18:09;;;;;;;;;;;;;;;-2.51;77.56;99977.97;4976732;28;19926;-82
2024/01/16 01:20:36;;;;;;;;;;;;;;;-2.43;77.15;99988.47;4987661;28;20024;-82
2024/01/16 01:23:03;;;;;;;;;;;;;;;-2.49;77.71;100000.31;4984646;28;19939;-82
2024/01/16 01:25:29;;;;;;;;;;;;;;;-2.50;77.59;99997.72;4988207;28;19937;-83
2024/01/16 01:27:56;;;;;;;;;;;;;;;-2.55;77.98;100009.53;4984967;28;20308;-83
2024/01/16 01:30:23;;;;;;;;;;;;;;;-2.53;77.95;100013.03;4988131;28;19934;-82
2024/01/16 01:32:49;;;;;;;;;;;;;;;-2.49;77.90;100018.31;4988350;28;19926;-82
2024/01/16 01:35:16;;;;;;;;;;;;;;;-2.57;77.89;100021.47;4980894;28;19930;-84
2024/01/16 01:37:43;;;;;;;;;;;;;;;-2.64;78.21;100021.28;4983908;28;19934;-85
2024/01/16 01:40:12;;;;;;;;;;;;;;;-2.41;77.04;100022.81;4986267;28;19948;-85
2024/01/16 01:42:40;;;;;;;;;;;;;;;-2.49;77.23;100020.00;4987089;28;19937;-83
2024/01/16 01:45:08;;;;;;;;;;;;;;;-2.54;77.46;100019.00;4984888;28;19933;-82
2024/01/16 01:47:35;;;;;;;;;;;;;;;-2.60;77.85;100016.25;4988286;28;19968;-83
2024/01/16 01:50:03;;;;;;;;;;;;;;;-2.40;77.40;100024.53;4984957;28;19929;-84
2024/01/16 01:52:33;;;;;;;;;;;;;;;-2.38;77.34;100028.91;4962502;28;20036;-83
2024/01/16 01:55:00;;;;;;;;;;;;;;;-2.29;76.88;100028.31;4966646;28;19934;-83
2024/01/16 01:57:27;;;;;;;;;;;;;;;-2.22;76.30;100030.25;4968024;28;20257;-82
2024/01/16 01:59:53;;;;;;;;;;;;;;;-2.29;76.77;100028.31;4951106;28;19936;-82
2024/01/16 02:02:20;;;;;;;;;;;;;;;-2.41;77.04;100027.97;4968317;28;19933;-82
2024/01/16 02:04:47;;;;;;;;;;;;;;;-2.59;77.61;100031.69;4980730;28;19964;-83
2024/01/16 02:07:15;;;;;;;;;;;;;;;-2.51;77.97;100026.78;4971968;28;19926;-83
2024/01/16 02:09:43;;;;;;;;;;;;;;;-2.59;77.92;100028.25;4966785;28;19940;-83
2024/01/16 02:12:09;;;;;;;;;;;;;;;-2.62;78.10;100031.63;4962059;28;19940;-85
2024/01/16 02:14:36;;;;;;;;;;;;;;;-2.58;78.03;100019.72;4982813;28;19926;-83
2024/01/16 02:17:03;;;;;;;;;;;;;;;-2.67;78.16;100020.31;4983738;28;20028;-84
2024/01/16 02:19:30;;;;;;;;;;;;;;;-2.63;78.04;100027.28;4983474;28;19934;-82
2024/01/16 02:21:58;;;;;;;;;;;;;;;-2.69;78.20;100022.81;4986943;28;19933;-82
2024/01/16 02:24:25;;;;;;;;;;;;;;;-2.63;78.29;100011.88;4968795;28;19931;-83
2024/01/16 02:26:52;;;;;;;;;;;;;;;-2.62;78.18;100017.06;4968640;28;19925;-83
2024/01/16 02:29:19;;;;;;;;;;;;;;;-2.49;78.23;100009.72;4989765;28;19980;-82
2024/01/16 02:31:46;;;;;;;;;;;;;;;-2.46;77.89;100014.97;4990344;28;19926;-82
2024/01/16 02:34:13;;;;;;;;;;;;;;;-2.41;77.48;100003.13;4991346;28;20292;-82
2024/01/16 02:36:40;;;;;;;;;;;;;;;-2.36;77.31;100006.72;4992812;28;19925;-81
2024/01/16 02:39:06;;;;;;;;;;;;;;;-2.35;76.88;100003.28;4992874;28;19930;-82
2024/01/16 02:41:33;;;;;;;;;;;;;;;-2.24;76.88;100003.63;4990296;28;19992;-85
2024/01/16 02:44:00;;;;;;;;;;;;;;;-2.23;76.25;100002.81;4994673;28;19925;-83
2024/01/16 02:46:26;;;;;;;;;;;;;;;-2.17;75.73;100003.00;4988794;28;19932;-86
2024/01/16 02:48:53;;;;;;;;;;;;;;;-2.25;76.18;100001.03;4991469;28;19933;-82
2024/01/16 02:51:19;;;;;;;;;;;;;;;-2.07;75.78;100001.56;4989874;28;19926;-83
2024/01/16 02:53:46;;;;;;;;;;;;;;;-2.18;75.97;100005.53;4973869;28;19933;-83
2024/01/16 02:56:13;;;;;;;;;;;;;;;-2.12;75.84;100006.53;4991576;28;19926;-84
2024/01/16 02:58:39;;;;;;;;;;;;;;;-2.08;75.77;100010.09;4972648;28;20460;-84
2024/01/16 03:01:07;;;;;;;;;;;;;;;-2.06;75.57;100007.56;4990125;28;20024;-82
2024/01/16 03:03:33;;;;;;;;;;;;;;;-2.15;75.68;100006.47;4988775;28;19926;-84
2024/01/16 03:06:00;;;;;;;;;;;;;;;-2.03;75.57;100010.22;4989845;28;19930;-82
2024/01/16 03:08:27;;;;;;;;;;;;;;;-2.10;75.30;100010.06;4988570;28;19929;-83
2024/01/16 03:10:54;;;;;;;;;;;;;;;-2.10;75.69;100015.19;4991303;28;19988;-82
2024/01/16 03:13:20;;;;;;;;;;;;;;;-1.96;75.01;100012.16;4989924;28;19936;-82
2024/01/16 03:15:47;;;;;;;;;;;;;;;-2.06;75.24;100015.28;4991653;28;19932;-84
2024/01/16 03:18:14;;;;;;;;;;;;;;;-2.04;75.36;100009.38;4987953;28;19926;-85
2024/01/16 03:20:41;;;;;;;;;;;;;;;-2.07;75.45;100018.66;4989691;28;19961;-83
2024/01/16 03:23:09;;;;;;;;;;;;;;;-2.08;75.52;100016.94;4991383;28;19926;-81
2024/01/16 03:25:38;;;;;;;;;;;;;;;-2.16;75.80;100022.75;4987169;28;19929;-85
2024/01/16 03:28:07;;;;;;;;;;;;;;;-2.11;75.65;100018.59;4988252;28;20003;-84
2024/01/16 03:30:35;;;;;;;;;;;;;;;-2.14;75.56;100021.06;4970278;28;20024;-85
2024/01/16 03:33:02;;;;;;;;;;;;;;;-2.20;75.94;100028.63;4989963;28;19998;-84
2024/01/16 03:35:29;;;;;;;;;;;;;;;-2.10;75.57;100025.47;4989517;28;19933;-83
2024/01/16 03:37:55;;;;;;;;;;;;;;;-2.10;75.61;100025.47;4989981;28;20444;-85
2024/01/16 03:40:22;;;;;;;;;;;;;;;-2.18;75.41;100026.94;4986196;28;19925;-83
2024/01/16 03:42:49;;;;;;;;;;;;;;;-2.19;75.66;100024.31;4984857;28;19930;-83
2024/01/16 03:45:16;;;;;;;;;;;;;;;-2.12;75.63;100029.69;4986599;28;19937;-82
2024/01/16 03:47:43;;;;;;;;;;;;;;;-2.15;75.56;100018.47;4981898;28;19926;-83
2024/01/16 03:50:10;;;;;;;;;;;;;;;-2.32;76.08;100008.56;4987259;28;19941;-83
2024/01/16 03:52:37;;;;;;;;;;;;;;;-2.30;76.34;100006.03;4968689;28;19972;-83
2024/01/16 03:55:04;;;;;;;;;;;;;;;-2.29;75.78;100003.50;4986799;28;20004;-83
2024/01/16 03:57:30;;;;;;;;;;;;;;;-2.24;75.36;100003.63;4985060;28;19930;-84
2024/01/16 03:59:57;;;;;;;;;;;;;;;-2.23;75.24;99995.09;4986089;28;19932;-84
2024/01/16 04:02:24;;;;;;;;;;;;;;;-2.10;74.26;100004.91;4982706;28;19932;-85
2024/01/16 04:04:51;;;;;;;;;;;;;;;-2.21;74.58;100001.16;4984051;28;19933;-83
2024/01/16 04:07:18;;;;;;;;;;;;;;;-2.26;74.95;99997.56;4987227;28;19932;-82
2024/01/16 04:09:44;;;;;;;;;;;;;;;-2.37;75.41;100001.53;4984874;28;19926;-84
2024/01/16 04:12:11;;;;;;;;;;;;;;;-2.46;75.41;100013.25;4984401;28;19926;-86
2024/01/16 04:14:37;;;;;;;;;;;;;;;-2.39;75.14;100022.03;4984455;28;19925;-82
2024/01/16 04:17:04;;;;;;;;;;;;;;;-2.38;75.43;100017.78;4985383;28;19925;-83
2024/01/16 04:19:33;;;;;;;;;;;;;;;-2.39;75.07;100010.88;4985719;28;19992;-88
2024/01/16 04:22:04;;;;;;;;;;;;;;;-2.22;74.17;100006.25;4986686;28;19925;-83
2024/01/16 04:24:31;;;;;;;;;;;;;;;-2.25;74.54;100009.59;4980038;28;19932;-82
2024/01/16 04:26:58;;;;;;;;;;;;;;;-2.41;74.93;100007.41;4987124;28;20009;-82
2024/01/16 04:29:25;;;;;;;;;;;;;;;-2.27;74.44;100012.13;4975336;28;19926;-83
2024/01/16 04:31:51;;;;;;;;;;;;;;;-2.37;74.39;100004.97;4983947;28;19926;-82
2024/01/16 04:34:18;;;;;;;;;;;;;;;-2.35;74.29;100005.88;4982996;28;19940;-84
2024/01/16 04:36:45;;;;;;;;;;;;;;;-2.54;74.88;100008.72;4981243;28;19926;-83
2024/01/16 04:39:12;;;;;;;;;;;;;;;-2.66;74.89;99999.78;4982469;28;19926;-82
2024/01/16 04:41:38;;;;;;;;;;;;;;;-2.74;75.26;100002.94;4983218;28;19944;-87
2024/01/16 04:44:05;;;;;;;;;;;;;;;-2.74;75.11;99998.66;4985735;28;19942;-85
2024/01/16 04:46:32;;;;;;;;;;;;;;;-2.73;74.78;99999.56;4972447;28;19926;-82
2024/01/16 04:48:58;;;;;;;;;;;;;;;-2.81;75.36;99997.63;4978068;28;19927;-82
2024/01/16 04:51:25;;;;;;;;;;;;;;;-2.84;75.39;99997.53;4963961;28;20020;-83
2024/01/16 04:53:52;;;;;;;;;;;;;;;-2.99;76.24;99992.75;4951413;28;19926;-84
2024/01/16 04:56:19;;;;;;;;;;;;;;;-3.12;76.76;99995.75;4982453;28;19978;-85
2024/01/16 04:58:46;;;;;;;;;;;;;;;-3.29;77.45;99991.75;4983497;28;19973;-83
2024/01/16 05:01:13;;;;;;;;;;;;;;;-3.31;77.49;99989.13;4968619;28;19932;-82
2024/01/16 05:03:39;;;;;;;;;;;;;;;-3.24;77.29;99990.22;4981905;28;19926;-84
2024/01/16 05:06:12;;;;;;;;;;;;;;;-3.35;77.80;99987.28;4986379;28;19926;-83
2024/01/16 05:08:38;;;;;;;;;;;;;;;-3.38;78.33;99982.06;4963198;28;19934;-82
2024/01/16 05:11:05;;;;;;;;;;;;;;;-3.44;78.59;99979.28;4983250;28;19937;-84
2024/01/16 05:13:32;;;;;;;;;;;;;;;-3.45;78.53;99982.66;4969340;28;19966;-82
2024/01/16 05:15:58;;;;;;;;;;;;;;;-3.50;78.49;99977.38;4989342;28;19942;-83
2024/01/16 05:18:25;;;;;;;;;;;;;;;-3.54;78.80;99970.41;4973782;28;19926;-83
2024/01/16 05:20:52;;;;;;;;;;;;;;;-3.51;78.73;99970.50;4975620;28;19933;-73
2024/01/16 05:23:19;;;;;;;;;;;;;;;-3.54;78.93;99968.69;4968916;28;20052;-74
2024/01/16 05:25:45;;;;;;;;;;;;;;;-3.55;79.07;99966.06;4971907;28;19949;-73
2024/01/16 05:28:12;;;;;;;;;;;;;;;-3.56;79.23;99966.91;4967740;28;19926;-73
2024/01/16 05:30:38;;;;;;;;;;;;;;;-3.60;79.36;99959.94;4952336;28;19964;-83
2024/01/16 05:33:05;;;;;;;;;;;;;;;-3.68;79.33;99967.34;4957192;28;19926;-83
2024/01/16 05:35:32;;;;;;;;;;;;;;;-3.70;79.57;99963.88;4988040;28;19925;-83
2024/01/16 05:37:59;;;;;;;;;;;;;;;-3.74;79.70;99956.88;4976800;28;19926;-83
2024/01/16 05:40:26;;;;;;;;;;;;;;;-3.78;80.09;99949.88;4981026;28;20024;-86
2024/01/16 05:42:52;;;;;;;;;;;;;;;-3.78;80.03;99952.47;4985319;28;19926;-83
2024/01/16 05:45:19;;;;;;;;;;;;;;;-3.94;80.04;99951.94;4987074;28;20352;-86
2024/01/16 05:47:46;;;;;;;;;;;;;;;-3.97;80.44;99948.38;4986762;28;20286;-84
2024/01/16 05:50:13;;;;;;;;;;;;;;;-3.96;80.47;99945.88;4979566;28;20354;-83
2024/01/16 05:52:40;;;;;;;;;;;;;;;-3.94;80.35;99939.13;4968048;28;19981;-81
2024/01/16 05:55:10;;;;;;;;;;;;;;;-3.97;80.62;99938.97;4975453;28;19973;-82
2024/01/16 05:57:37;;;;;;;;;;;;;;;-3.95;80.51;99937.38;4987892;28;20409;-82
2024/01/16 06:00:05;;;;;;;;;;;;;;;-3.96;80.82;99927.91;4987487;28;19925;-81
2024/01/16 06:02:32;;;;;;;;;;;;;;;-3.95;80.58;99929.69;4967210;28;19933;-81
2024/01/16 06:04:58;;;;;;;;;;;;;;;-3.95;81.02;99934.81;4965454;28;19926;-82
2024/01/16 06:07:25;;;;;;;;;;;;;;;-4.01;81.02;99932.03;4980243;28;19957;-82
2024/01/16 06:09:52;;;;;;;;;;;;;;;-4.03;81.27;99933.66;4984071;28;20370;-84
2024/01/16 06:12:18;;;;;;;;;;;;;;;-4.03;81.25;99934.53;4986662;28;20292;-82
2024/01/16 06:14:51;;;;;;;;;;;;;;;-4.03;81.10;99939.66;4980898;28;19926;-82
2024/01/16 06:17:23;;;;;;;;;;;;;;;-4.13;81.65;99940.13;4952742;28;19964;-82
2024/01/16 06:19:50;;;;;;;;;;;;;;;-4.24;81.93;99944.88;4965771;28;19933;-82
2024/01/16 06:22:17;;;;;;;;;;;;;;;-4.31;82.42;99940.34;4985706;28;19972;-82
2024/01/16 06:24:44;;;;;;;;;;;;;;;-4.34;82.52;99942.81;4983176;28;20045;-82
2024/01/16 06:27:18;;;;;;;;;;;;;;;-4.31;82.61;99935.22;4984197;28;19930;-82
2024/01/16 06:29:46;;;;;;;;;;;;;;;-4.26;82.42;99946.53;4983436;28;19962;-84
2024/01/16 06:32:13;;;;;;;;;;;;;;;-4.18;82.33;99940.81;4984733;28;19926;-83
2024/01/16 06:34:40;;;;;;;;;;;;;;;-4.17;82.20;99943.44;4987548;28;19996;-82
2024/01/16 06:37:06;;;;;;;;;;;;;;;-4.04;82.07;99937.03;4977512;28;19926;-81
2024/01/16 06:39:34;;;;;;;;;;;;;;;-3.98;81.85;99928.69;4950773;28;19926;-81
2024/01/16 06:42:01;;;;;;;;;;;;;;;-3.93;81.76;99930.59;4975286;28;19932;-84
2024/01/16 06:44:34;;;;;;;;;;;;;;;-3.85;81.37;99928.31;4980822;28;19926;-81
2024/01/16 06:47:02;;;;;;;;;;;;;;;-3.85;81.26;99929.16;4982652;28;19968;-82
2024/01/16 06:49:29;;;;;;;;;;;;;;;-3.87;81.35;99932.50;4977280;28;19992;-83
2024/01/16 06:51:57;;;;;;;;;;;;;;;-3.92;81.57;99929.78;4983802;28;20024;-83
2024/01/16 06:54:23;;;;;;;;;;;;;;;-3.98;81.79;99937.25;4985579;28;19925;-82
2024/01/16 06:56:50;;;;;;;;;;;;;;;-4.05;81.99;99931.03;4978515;28;19932;-81
2024/01/16 06:59:19;;;;;;;;;;;;;;;-4.06;82.14;99943.78;4968372;28;19933;-82
2024/01/16 07:01:46;;;;;;;;;;;;;;;-4.11;82.75;99940.19;4983631;28;19926;-81
2024/01/16 07:04:14;;;;;;;;;;;;;;;-4.13;82.78;99937.56;4983126;28;19926;-85
2024/01/16 07:06:44;;;;;;;;;;;;;;;-4.16;82.89;99936.59;4966538;28;19926;-85
2024/01/16 07:09:29;;;;;;;;;;;;;;;-4.16;82.78;99934.03;4933422;28;20026;-86
2024/01/16 07:11:56;;;;;;;;;;;;;;;-4.11;82.39;99940.19;4971628;28;19926;-83
2024/01/16 07:14:26;;;;;;;;;;;;;;;-4.13;82.16;99942.69;4960755;28;20333;-82
2024/01/16 07:16:59;;;;;;;;;;;;;;;-4.09;82.05;99939.44;4972908;28;19932;-82
2024/01/16 07:19:27;;;;;;;;;;;;;;;-4.02;81.65;99951.66;4982000;28;19925;-86
2024/01/16 07:21:57;;;;;;;;;;;;;;;-4.03;81.72;99938.78;4905167;28;19933;-84
2024/01/16 07:24:28;;;;;;;;;;;;;;;-4.07;81.74;99942.03;4910716;28;19972;-83
2024/01/16 07:26:56;;;;;;;;;;;;;;;-4.13;81.87;99944.38;4981339;28;19945;-85
2024/01/16 07:29:22;;;;;;;;;;;;;;;-4.17;82.16;99950.22;4983645;28;19926;-83
2024/01/16 07:31:50;;;;;;;;;;;;;;;-4.13;82.38;99945.25;4970385;28;19937;-83
2024/01/16 07:34:21;;;;;;;;;;;;;;;-4.13;82.74;99941.81;4895231;28;19959;-82
2024/01/16 07:39:27;;;;;;;;;;;;;;;-4.10;82.68;99939.38;4951479;28;19927;-82
2024/01/16 07:42:08;;;;;;;;;;;;;;;-4.08;82.96;99935.19;4935418;28;20001;-81
2024/01/16 07:48:14;;;;;;;;;;;;;;;-4.06;82.65;99939.53;4926673;28;19934;-88
2024/01/16 07:50:57;;;;;;;;;;;;;;;-4.07;82.70;99937.81;4957256;28;19930;-85
2024/01/16 07:53:27;;;;;;;;;;;;;;;-4.00;82.98;99959.38;4967478;28;19926;-83
2024/01/16 07:56:01;;;;;;;;;;;;;;;-3.97;82.57;99949.25;4971671;28;19926;-83
2024/01/16 07:58:29;;;;;;;;;;;;;;;-3.96;83.26;99955.25;4973992;28;19926;-89
2024/01/16 08:00:56;;;;;;;;;;;;;;;-3.96;83.14;99950.13;4944484;28;19926;-83
2024/01/16 08:03:23;;;;;;;;;;;;;;;-3.99;83.23;99952.59;4951371;28;19930;-82
2024/01/16 08:10:57;;;;;;;;;;;;;;;-3.96;83.17;99965.50;4950141;23;19926;-82
2024/01/16 08:13:24;;;;;;;;;;;;;;;-3.95;82.64;99968.13;4970496;28;19930;-81
2024/01/16 08:15:54;;;;;;;;;;;;;;;-3.95;82.43;99967.28;4984739;28;19949;-83
2024/01/16 08:18:22;;;;;;;;;;;;;;;-3.96;82.26;99971.50;4986577;28;19995;-91
2024/01/16 08:20:49;;;;;;;;;;;;;;;-3.94;82.34;99971.56;4958183;28;19932;-83
2024/01/16 08:23:17;;;;;;;;;;;;;;;-3.95;82.24;99964.72;4971396;28;19977;-87
2024/01/16 08:25:49;;;;;;;;;;;;;;;-3.94;82.28;99967.31;4997728;28;19926;-82
2024/01/16 08:28:18;;;;;;;;;;;;;;;-3.90;82.22;99970.84;4993966;28;20040;-84
2024/01/16 08:30:49;;;;;;;;;;;;;;;-3.88;82.30;99971.75;4991981;28;19965;-88
2024/01/16 08:33:18;;;;;;;;;;;;;;;-3.86;82.11;99982.97;4976786;28;19948;-85
2024/01/16 08:35:59;;;;;;;;;;;;;;;-3.81;82.16;99985.69;4999969;28;19932;-85
2024/01/16 08:38:26;;;;;;;;;;;;;;;-3.79;82.41;99989.19;4989237;28;19977;-82
2024/01/16 08:40:53;;;;;;;;;;;;;;;-3.82;81.97;99983.94;4997360;28;20019;-96
2024/01/16 08:43:22;;;;;;;;;;;;;;;-3.79;82.07;99984.94;4939931;28;19932;-86
2024/01/16 08:46:22;;;;;;;;;;;;;;;-3.70;81.82;99989.50;4981753;28;19934;-82
2024/01/16 08:49:09;;;;;;;;;;;;;;;-3.63;82.29;99991.47;4966344;28;19925;-85
2024/01/16 08:51:36;;;;;;;;;;;;;;;-3.61;82.15;99994.94;4986670;28;19933;-83
2024/01/16 08:54:03;;;;;;;;;;;;;;;-3.53;82.19;100000.38;4937926;28;19926;-84
2024/01/16 08:56:30;;;;;;;;;;;;;;;-3.50;81.89;99995.34;4966192;28;19926;-83
2024/01/16 08:58:57;;;;;;;;;;;;;;;-3.48;82.07;100000.53;4991028;28;19986;-83
2024/01/16 09:01:30;;;;;;;;;;;;;;;-3.44;81.88;100004.94;4901677;28;19930;-83
2024/01/16 09:03:58;;;;;;;;;;;;;;;-3.38;81.77;100007.72;4975684;28;19926;-85
2024/01/16 09:06:26;;;;;;;;;;;;;;;-3.34;81.55;100004.44;4996697;28;19925;-82
2024/01/16 09:08:55;;;;;;;;;;;;;;;-3.29;81.50;100010.56;4977144;28;19929;-82
2024/01/16 09:11:25;;;;;;;;;;;;;;;-3.23;81.53;100005.69;4970192;28;19949;-82
2024/01/16 09:13:52;;;;;;;;;;;;;;;-3.15;81.55;100022.19;4974636;28;19930;-82
2024/01/16 09:16:18;;;;;;;;;;;;;;;-3.11;81.10;100012.00;4999968;28;19949;-92
2024/01/16 09:18:48;;;;;;;;;;;;;;;-3.04;80.83;100019.09;4992620;28;19926;-84
2024/01/16 09:21:17;;;;;;;;;;;;;;;-2.98;80.29;100029.59;4975179;28;19934;-83
2024/01/16 09:23:45;;;;;;;;;;;;;;;-2.89;80.28;100034.16;5044125;23;19930;-88
2024/01/16 09:26:12;;;;;;;;;;;;;;;-2.86;79.99;100024.84;4893401;28;19926;-83
2024/01/16 09:28:39;;;;;;;;;;;;;;;-2.83;79.71;100019.81;4938451;28;20036;-83
2024/01/16 09:31:11;;;;;;;;;;;;;;;-2.70;79.72;100017.63;4957878;28;19934;-82
2024/01/16 09:33:39;;;;;;;;;;;;;;;-2.70;79.48;100007.38;4901902;23;19987;-84
2024/01/16 09:36:18;;;;;;;;;;;;;;;-2.54;80.01;100009.56;4934684;28;19930;-83
2024/01/16 09:38:45;;;;;;;;;;;;;;;-2.53;79.33;100024.19;4918491;28;19927;-85
2024/01/16 09:41:13;;;;;;;;;;;;;;;-2.46;79.26;100010.69;4941524;28;20025;-82
2024/01/16 09:43:41;;;;;;;;;;;;;;;-2.45;79.36;100007.31;4822545;28;19962;-86
2024/01/16 09:46:13;;;;;;;;;;;;;;;-2.43;79.22;99996.19;4897664;28;20021;-83
2024/01/16 09:48:47;;;;;;;;;;;;;;;-2.40;78.85;99998.84;4927618;28;19926;-84
2024/01/16 09:51:18;;;;;;;;;;;;;;;-2.37;78.56;99997.25;4994149;23;19954;-82
2024/01/16 09:56:47;;;;;;;;;;;;;;;-2.37;78.14;99988.69;4910841;23;19942;-82
2024/01/16 10:02:15;;;;;;;;;;;;;;;-2.24;77.99;99995.91;4937320;23;19930;-81
2024/01/16 10:11:14;;;;;;;;;;;;;;;-2.10;77.39;100004.91;4956170;28;19926;-82
2024/01/16 10:14:01;;;;;;;;;;;;;;;-2.03;76.76;100005.09;4906204;28;19937;-81
2024/01/16 10:16:48;;;;;;;;;;;;;;;-1.95;76.89;100006.19;4891546;29;20069;-82
2024/01/16 10:19:43;;;;;;;;;;;;;;;-1.92;77.00;99993.41;4842589;29;19942;-82
2024/01/16 10:22:20;;;;;;;;;;;;;;;-1.79;77.16;100010.91;4866234;29;19971;-87
2024/01/16 10:27:43;;;;;;;;;;;;;;;-1.75;76.23;99989.59;4971125;28;19926;-83
2024/01/16 10:30:10;;;;;;;;;;;;;;;-1.59;76.58;99987.44;4960240;23;19990;-83
2024/01/16 10:32:39;;;;;;;;;;;;;;;-1.51;76.30;99996.22;4955330;28;19930;-86
2024/01/16 10:35:13;;;;;;;;;;;;;;;-1.58;75.38;99999.47;4966958;28;19930;-86
2024/01/16 10:40:28;;;;;;;;;;;;;;;-1.49;75.44;99994.59;4935941;28;19933;-81
2024/01/16 10:42:58;;;;;;;;;;;;;;;-1.44;75.13;99984.41;4921656;28;20292;-82
2024/01/16 10:45:25;;;;;;;;;;;;;;;-1.32;75.43;99976.13;4956569;28;19981;-85
2024/01/16 10:48:04;;;;;;;;;;;;;;;-1.33;75.09;99969.22;4948116;28;20029;-84
2024/01/16 10:50:31;;;;;;;;;;;;;;;-1.32;74.52;99968.41;4937933;28;19982;-85
2024/01/16 10:53:05;;;;;;;;;;;;;;;-1.28;74.34;99968.50;4967731;28;19925;-85
2024/01/16 10:55:35;;;;;;;;;;;;;;;-1.23;74.11;99961.78;4971679;28;19934;-87
2024/01/16 10:58:01;;;;;;;;;;;;;;;-1.10;73.99;99951.78;4968136;28;19934;-86
2024/01/16 11:00:28;;;;;;;;;;;;;;;-1.06;73.65;99949.34;4972214;28;19945;-88
2024/01/16 11:03:06;;;;;;;;;;;;;;;-1.09;73.82;99949.22;4977518;28;19933;-81
2024/01/16 11:05:33;;;;;;;;;;;;;;;-0.87;73.60;99949.75;4960268;28;20042;-83
2024/01/16 11:08:06;;;;;;;;;;;;;;;-0.74;73.56;99941.47;4966738;28;19937;-84
2024/01/16 11:10:33;;;;;;;;;;;;;;;-0.82;73.39;99940.44;4943289;28;19933;-83
2024/01/16 11:13:01;;;;;;;;;;;;;;;-0.75;72.83;99944.88;4976341;28;20087;-81
2024/01/16 11:15:28;;;;;;;;;;;;;;;-0.63;72.31;99948.59;4954971;28;19933;-83
2024/01/16 11:17:55;;;;;;;;;;;;;;;-0.51;72.01;99940.25;4974614;28;19941;-82
2024/01/16 11:20:22;;;;;;;;;;;;;;;-0.46;72.45;99941.22;4972958;28;19934;-82
2024/01/16 11:23:10;;;;;;;;;;;;;;;-0.44;71.90;99950.72;4958799;28;20318;-83
2024/01/16 11:25:37;;;;;;;;;;;;;;;-0.44;71.02;99942.13;4954996;28;19926;-83
2024/01/16 11:28:10;;;;;;;;;;;;;;;-0.34;71.62;99932.88;4972024;28;19941;-83
2024/01/16 11:30:37;;;;;;;;;;;;;;;-0.19;71.60;99925.44;4955120;28;19934;-83
2024/01/16 11:33:07;;;;;;;;;;;;;;;-0.24;71.19;99921.91;4962226;28;19941;-83
2024/01/16 11:35:38;;;;;;;;;;;;;;;-0.19;70.46;99923.75;4979777;28;19940;-83
2024/01/16 11:38:06;;;;;;;;;;;;;;;-0.10;70.51;99925.63;4978825;28;19937;-81
2024/01/16 11:40:33;;;;;;;;;;;;;;;-0.10;70.46;99922.16;4958415;28;19930;-81
2024/01/16 11:43:00;;;;;;;;;;;;;;;-0.22;70.47;99918.53;4952023;28;19926;-82
2024/01/16 11:45:27;;;;;;;;;;;;;;;-0.30;70.18;99916.63;4958030;28;19948;-81
2024/01/16 11:48:20;;;;;;;;;;;;;;;-0.18;70.91;99906.56;4972193;28;19925;-82
2024/01/16 11:50:47;;;;;;;;;;;;;;;-0.20;70.14;99897.94;4972744;28;20050;-81
2024/01/16 11:53:33;;;;;;;;;;;;;;;-0.07;70.07;99888.72;4956518;28;19934;-83
2024/01/16 11:56:06;;;;;;;;;;;;;;;0.09;69.27;99895.91;4971803;28;19933;-82
2024/01/16 11:58:33;;;;;;;;;;;;;;;0.62;67.68;99889.97;4970507;28;19941;-81
2024/01/16 12:00:59;;;;;;;;;;;;;;;0.94;67.86;99888.69;4970395;28;19926;-83
2024/01/16 12:03:26;;;;;;;;;;;;;;;1.11;66.10;99883.78;4961356;28;19931;-83
2024/01/16 12:06:02;;;;;;;;;;;;;;;1.15;65.28;99876.09;4976137;28;19926;-83
2024/01/16 12:08:29;;;;;;;;;;;;;;;1.28;64.59;99874.56;4973228;28;19926;-82
2024/01/16 12:10:57;;;;;;;;;;;;;;;1.27;64.05;99872.81;4969778;28;19926;-82
2024/01/16 12:13:24;;;;;;;;;;;;;;;1.61;64.79;99862.03;4958753;28;19930;-83
2024/01/16 12:16:04;;;;;;;;;;;;;;;1.64;63.51;99857.78;4972095;28;19953;-83
2024/01/16 12:18:31;;;;;;;;;;;;;;;1.69;62.63;99861.28;4969707;28;19926;-83
2024/01/16 12:21:12;;;;;;;;;;;;;;;1.64;63.44;99859.50;4975494;28;19977;-80
2024/01/16 12:23:40;;;;;;;;;;;;;;;1.78;62.42;99854.47;4959829;28;19930;-83
2024/01/16 12:26:24;;;;;;;;;;;;;;;1.85;62.52;99851.97;4959567;28;19925;-82
2024/01/16 12:28:54;;;;;;;;;;;;;;;1.95;62.52;99852.09;4972770;28;19983;-83
2024/01/16 12:31:26;;;;;;;;;;;;;;;1.76;62.64;99849.28;4969123;28;19925;-83
2024/01/16 12:33:52;;;;;;;;;;;;;;;2.03;62.23;99851.31;4974439;28;19930;-84
2024/01/16 12:36:29;;;;;;;;;;;;;;;2.13;61.53;99847.09;4970368;28;19926;-82
2024/01/16 12:38:56;;;;;;;;;;;;;;;1.75;62.16;99834.59;4970425;28;19926;-81
2024/01/16 12:41:23;;;;;;;;;;;;;;;1.74;62.77;99833.75;4966700;28;19929;-81
2024/01/16 12:44:04;;;;;;;;;;;;;;;1.67;62.25;99834.53;4958196;28;19926;-83
2024/01/16 12:46:41;;;;;;;;;;;;;;;1.90;60.88;99828.75;4975431;28;19949;-82
2024/01/16 12:49:08;;;;;;;;;;;;;;;2.11;60.46;99824.63;4973088;28;19937;-82
2024/01/16 12:51:35;;;;;;;;;;;;;;;2.10;60.06;99823.78;4948096;28;19926;-83
2024/01/16 12:54:12;;;;;;;;;;;;;;;2.22;59.87;99823.88;4966174;28;19941;-81
2024/01/16 12:56:39;;;;;;;;;;;;;;;2.17;59.57;99811.72;4953402;28;20449;-82
2024/01/16 12:59:11;;;;;;;;;;;;;;;1.98;60.75;99815.88;4970992;28;19930;-83
2024/01/16 13:01:45;;;;;;;;;;;;;;;2.00;59.38;99815.03;4968481;28;19926;-82
2024/01/16 13:04:15;;;;;;;;;;;;;;;2.28;59.08;99815.28;4968307;28;19977;-83
2024/01/16 13:06:46;;;;;;;;;;;;;;;1.99;60.18;99808.13;4971740;28;19976;-83
2024/01/16 13:09:18;;;;;;;;;;;;;;;2.10;59.94;99805.66;4960242;28;19934;-83
2024/01/16 13:11:51;;;;;;;;;;;;;;;1.77;59.94;99800.97;4971864;28;20070;-81
2024/01/16 13:14:20;;;;;;;;;;;;;;;1.92;60.22;99803.75;4978992;28;19933;-82
2024/01/16 13:16:51;;;;;;;;;;;;;;;2.15;58.93;99797.91;4973227;28;19949;-82
2024/01/16 13:19:18;;;;;;;;;;;;;;;2.45;59.21;99792.13;4969922;28;19930;-83
2024/01/16 13:21:45;;;;;;;;;;;;;;;2.64;57.03;99792.28;4952153;28;19930;-80
2024/01/16 13:24:13;;;;;;;;;;;;;;;2.30;57.09;99777.31;4970803;28;19926;-82